createdAt,value
2023-05-21T00:00:12.218Z,12.90
2023-05-21T00:02:40.226Z,12.90
2023-05-21T00:05:14.336Z,12.90
2023-05-21T00:07:41.747Z,12.90
2023-05-21T00:10:09.133Z,12.90
2023-05-21T00:12:36.202Z,12.80
2023-05-21T00:15:03.603Z,12.80
2023-05-21T00:17:30.549Z,12.80
2023-05-21T00:19:57.577Z,12.80
2023-05-21T00:22:24.555Z,12.80
2023-05-21T00:24:51.714Z,12.90
2023-05-21T00:27:18.740Z,12.80
2023-05-21T00:29:45.743Z,12.80
2023-05-21T00:32:12.783Z,12.80
2023-05-21T00:34:40.299Z,12.80
2023-05-21T00:37:10.122Z,12.80
2023-05-21T00:39:37.223Z,12.80
2023-05-21T00:42:04.456Z,12.80
2023-05-21T00:44:34.431Z,12.80
2023-05-21T00:47:02.441Z,12.80
2023-05-21T00:49:30.696Z,12.80
2023-05-21T00:51:58.042Z,12.80
2023-05-21T00:54:25.055Z,12.80
2023-05-21T00:56:52.685Z,12.80
2023-05-21T00:59:19.763Z,12.80
2023-05-21T01:01:46.925Z,12.80
2023-05-21T01:04:14.184Z,12.80
2023-05-21T01:06:42.708Z,12.80
2023-05-21T01:09:10.008Z,12.80
2023-05-21T01:11:43.393Z,12.70
2023-05-21T01:14:12.925Z,12.70
2023-05-21T01:16:43.979Z,12.70
2023-05-21T01:19:14.246Z,12.70
2023-05-21T01:21:45.068Z,12.70
2023-05-21T01:24:12.067Z,12.60
2023-05-21T01:26:42.748Z,12.60
2023-05-21T01:29:14.154Z,12.60
2023-05-21T01:31:56.577Z,12.60
2023-05-21T01:34:30.330Z,12.50
2023-05-21T01:37:09.021Z,12.60
2023-05-21T01:39:40.789Z,12.60
2023-05-21T01:42:10.897Z,12.60
2023-05-21T01:44:39.088Z,12.60
2023-05-21T01:47:06.795Z,12.50
2023-05-21T01:49:34.160Z,12.50
2023-05-21T01:52:02.798Z,12.50
2023-05-21T01:54:29.747Z,12.60
2023-05-21T01:56:56.962Z,12.50
2023-05-21T01:59:23.968Z,12.50
2023-05-21T02:01:51.094Z,12.50
2023-05-21T02:04:18.002Z,12.40
2023-05-21T02:06:44.953Z,12.40
2023-05-21T02:09:11.954Z,12.40
2023-05-21T02:11:38.874Z,12.40
2023-05-21T02:14:05.965Z,12.40
2023-05-21T02:16:32.921Z,12.40
2023-05-21T02:19:00.672Z,12.30
2023-05-21T02:21:27.897Z,12.30
2023-05-21T02:23:54.802Z,12.30
2023-05-21T02:26:22.873Z,12.30
2023-05-21T02:28:49.828Z,12.30
2023-05-21T02:31:16.828Z,12.20
2023-05-21T02:33:43.772Z,12.20
2023-05-21T02:36:13.299Z,12.20
2023-05-21T02:38:43.884Z,12.20
2023-05-21T02:41:11.693Z,12.20
2023-05-21T02:43:38.641Z,12.20
2023-05-21T02:46:06.772Z,12.20
2023-05-21T02:48:33.787Z,12.20
2023-05-21T02:51:00.797Z,12.20
2023-05-21T02:53:27.683Z,12.20
2023-05-21T02:55:54.732Z,12.20
2023-05-21T02:58:23.560Z,12.20
2023-05-21T03:00:50.537Z,12.20
2023-05-21T03:03:17.675Z,12.20
2023-05-21T03:05:46.175Z,12.20
2023-05-21T03:08:13.085Z,12.10
2023-05-21T03:10:40.030Z,12.20
2023-05-21T03:13:09.611Z,12.10
2023-05-21T03:15:39.510Z,12.10
2023-05-21T03:18:06.728Z,12.10
2023-05-21T03:20:33.740Z,12.10
2023-05-21T03:23:04.182Z,12.10
2023-05-21T03:25:31.272Z,12.10
2023-05-21T03:27:58.667Z,12.10
2023-05-21T03:30:25.649Z,12.10
2023-05-21T03:32:52.780Z,12.10
2023-05-21T03:35:19.791Z,12.10
2023-05-21T03:37:46.724Z,12.20
2023-05-21T03:40:13.943Z,12.20
2023-05-21T03:42:40.812Z,12.30
2023-05-21T03:45:08.191Z,12.30
2023-05-21T03:47:36.269Z,12.30
2023-05-21T03:50:03.699Z,12.40
2023-05-21T03:52:30.700Z,12.40
2023-05-21T03:54:57.636Z,12.40
2023-05-21T03:57:24.493Z,12.50
2023-05-21T03:59:51.493Z,12.50
2023-05-21T04:02:18.525Z,12.60
2023-05-21T04:04:45.722Z,12.60
2023-05-21T04:07:15.559Z,12.60
2023-05-21T04:09:42.555Z,12.70
2023-05-21T04:12:09.539Z,12.70
2023-05-21T04:14:37.759Z,12.80
2023-05-21T04:17:05.842Z,12.90
2023-05-21T04:19:33.224Z,12.90
2023-05-21T04:22:00.363Z,13.00
2023-05-21T04:24:27.368Z,13.00
2023-05-21T04:26:54.325Z,13.10
2023-05-21T04:29:21.475Z,13.20
2023-05-21T04:31:49.869Z,13.30
2023-05-21T04:34:18.071Z,13.40
2023-05-21T04:36:48.442Z,13.40
2023-05-21T04:39:16.441Z,13.60
2023-05-21T04:41:43.577Z,13.60
2023-05-21T04:44:10.629Z,13.70
2023-05-21T04:46:39.661Z,13.80
2023-05-21T04:49:10.400Z,13.90
2023-05-21T04:51:40.636Z,14.00
2023-05-21T04:54:08.042Z,14.20
2023-05-21T04:56:35.100Z,14.30
2023-05-21T04:59:05.220Z,14.40
2023-05-21T05:01:35.374Z,14.50
2023-05-21T05:04:02.482Z,14.60
2023-05-21T05:06:29.400Z,14.70
2023-05-21T05:08:56.331Z,14.80
2023-05-21T05:11:23.318Z,15.00
2023-05-21T05:13:50.388Z,15.00
2023-05-21T05:16:18.613Z,15.20
2023-05-21T05:18:45.602Z,15.20
2023-05-21T05:21:12.543Z,15.30
2023-05-21T05:23:39.381Z,15.50
2023-05-21T05:26:06.455Z,15.60
2023-05-21T05:28:33.398Z,15.70
2023-05-21T05:31:00.394Z,15.80
2023-05-21T05:33:27.280Z,15.90
2023-05-21T05:35:54.345Z,16.00
2023-05-21T05:38:21.234Z,16.10
2023-05-21T05:40:48.329Z,16.20
2023-05-21T05:43:15.612Z,16.30
2023-05-21T05:45:42.584Z,16.50
2023-05-21T05:48:09.654Z,16.60
2023-05-21T05:50:36.632Z,16.70
2023-05-21T05:53:03.575Z,16.70
2023-05-21T05:55:30.528Z,16.80
2023-05-21T05:57:57.523Z,17.00
2023-05-21T06:00:24.497Z,17.00
2023-05-21T06:02:51.615Z,17.10
2023-05-21T06:05:19.183Z,17.20
2023-05-21T06:07:46.199Z,17.30
2023-05-21T06:10:13.162Z,17.40
2023-05-21T06:12:40.204Z,17.50
2023-05-21T06:15:07.702Z,17.60
2023-05-21T06:17:34.924Z,17.70
2023-05-21T06:20:02.131Z,17.80
2023-05-21T06:22:29.037Z,17.90
2023-05-21T06:24:56.219Z,18.00
2023-05-21T06:27:23.196Z,18.10
2023-05-21T06:29:50.300Z,18.20
2023-05-21T06:32:17.357Z,18.30
2023-05-21T06:34:44.396Z,18.40
2023-05-21T06:37:11.455Z,18.40
2023-05-21T06:39:38.461Z,18.50
2023-05-21T06:42:05.816Z,18.60
2023-05-21T06:44:32.774Z,18.60
2023-05-21T06:46:59.674Z,18.60
2023-05-21T06:49:26.745Z,18.70
2023-05-21T06:51:53.676Z,18.80
2023-05-21T06:54:20.594Z,18.90
2023-05-21T06:56:47.599Z,19.00
2023-05-21T06:59:14.536Z,19.10
2023-05-21T07:01:42.774Z,19.20
2023-05-21T07:04:10.399Z,19.30
2023-05-21T07:06:38.065Z,19.40
2023-05-21T07:09:06.159Z,19.50
2023-05-21T07:11:33.449Z,19.60
2023-05-21T07:14:01.792Z,19.70
2023-05-21T07:16:28.782Z,19.90
2023-05-21T07:18:55.917Z,20.00
2023-05-21T07:21:23.328Z,20.10
2023-05-21T07:23:50.271Z,20.20
2023-05-21T07:26:17.268Z,20.20
2023-05-21T07:28:45.199Z,20.30
2023-05-21T07:31:14.857Z,20.40
2023-05-21T07:33:41.757Z,20.50
2023-05-21T07:36:08.769Z,20.60
2023-05-21T07:38:35.712Z,20.60
2023-05-21T07:41:02.725Z,20.70
2023-05-21T07:43:29.898Z,20.80
2023-05-21T07:45:56.954Z,20.80
2023-05-21T07:48:23.916Z,20.90
2023-05-21T07:50:53.880Z,21.00
2023-05-21T07:53:20.911Z,21.20
2023-05-21T07:55:48.182Z,21.20
2023-05-21T07:58:18.857Z,21.30
2023-05-21T08:00:47.342Z,21.30
2023-05-21T08:03:18.559Z,21.50
2023-05-21T08:05:49.095Z,21.60
2023-05-21T08:08:17.638Z,21.60
2023-05-21T08:10:45.122Z,21.70
2023-05-21T08:13:12.920Z,21.80
2023-05-21T08:15:40.285Z,21.80
2023-05-21T08:18:07.340Z,21.80
2023-05-21T08:20:34.531Z,21.80
2023-05-21T08:23:01.998Z,21.80
2023-05-21T08:25:28.985Z,21.90
2023-05-21T08:27:56.573Z,22.00
2023-05-21T08:30:23.490Z,22.00
2023-05-21T08:32:50.550Z,22.00
2023-05-21T08:35:17.559Z,22.10
2023-05-21T08:37:44.470Z,22.20
2023-05-21T08:40:12.460Z,22.20
2023-05-21T08:42:47.199Z,22.20
2023-05-21T08:45:17.034Z,22.30
2023-05-21T08:47:44.628Z,22.30
2023-05-21T08:50:14.237Z,22.30
2023-05-21T08:52:41.894Z,22.40
2023-05-21T08:55:10.342Z,22.50
2023-05-21T08:57:37.581Z,22.50
2023-05-21T09:00:08.290Z,22.60
2023-05-21T09:02:38.685Z,22.60
2023-05-21T09:05:06.494Z,22.70
2023-05-21T09:07:45.912Z,22.70
2023-05-21T09:10:14.114Z,22.70
2023-05-21T09:12:41.317Z,22.70
2023-05-21T09:15:08.883Z,22.90
2023-05-21T09:17:36.254Z,23.00
2023-05-21T09:20:16.820Z,23.00
2023-05-21T09:22:48.972Z,22.90
2023-05-21T09:25:17.690Z,22.90
2023-05-21T09:27:45.138Z,23.00
2023-05-21T09:30:14.329Z,23.00
2023-05-21T09:32:42.168Z,23.20
2023-05-21T09:35:14.217Z,23.30
2023-05-21T09:37:47.374Z,23.20
2023-05-21T09:40:15.556Z,23.20
2023-05-21T09:42:46.301Z,23.20
2023-05-21T09:45:17.764Z,23.30
2023-05-21T09:47:45.991Z,23.30
2023-05-21T09:50:14.418Z,23.20
2023-05-21T09:52:42.280Z,23.20
2023-05-21T09:55:15.154Z,23.20
2023-05-21T09:57:43.037Z,23.10
2023-05-21T10:00:18.477Z,23.10
2023-05-21T10:02:47.539Z,23.20
2023-05-21T10:05:16.676Z,23.10
2023-05-21T10:07:53.072Z,23.10
2023-05-21T10:10:22.831Z,23.10
2023-05-21T10:13:06.968Z,23.10
2023-05-21T10:15:40.842Z,23.10
2023-05-21T10:18:10.172Z,23.20
2023-05-21T10:20:38.588Z,23.30
2023-05-21T10:23:06.193Z,23.40
2023-05-21T10:25:33.583Z,23.40
2023-05-21T10:28:01.114Z,23.40
2023-05-21T10:30:28.456Z,23.40
2023-05-21T10:32:57.536Z,23.20
2023-05-21T10:35:24.897Z,23.20
2023-05-21T10:37:53.398Z,23.20
2023-05-21T10:40:20.497Z,23.30
2023-05-21T10:43:06.243Z,23.20
2023-05-21T10:45:58.063Z,23.30
2023-05-21T10:48:39.346Z,23.40
2023-05-21T10:51:24.328Z,23.50
2023-05-21T10:53:54.288Z,23.50
2023-05-21T10:56:30.767Z,23.70
2023-05-21T10:59:22.033Z,23.70
2023-05-21T11:01:53.017Z,23.70
2023-05-21T11:04:26.880Z,23.80
2023-05-21T11:06:54.330Z,23.80
2023-05-21T11:09:22.762Z,23.80
2023-05-21T11:12:00.237Z,23.80
2023-05-21T11:14:41.119Z,23.80
2023-05-21T11:17:13.096Z,23.90
2023-05-21T11:19:43.938Z,24.10
2023-05-21T11:22:21.659Z,24.10
2023-05-21T11:24:51.115Z,24.10
2023-05-21T11:27:40.959Z,24.20
2023-05-21T11:30:16.032Z,23.90
2023-05-21T11:33:07.990Z,23.90
2023-05-21T11:35:50.488Z,23.90
2023-05-21T11:38:18.478Z,23.70
2023-05-21T11:40:56.491Z,23.60
2023-05-21T11:43:23.440Z,23.50
2023-05-21T11:45:52.860Z,23.70
2023-05-21T11:48:26.690Z,23.50
2023-05-21T11:50:54.699Z,23.30
2023-05-21T11:53:21.719Z,22.90
2023-05-21T11:55:48.792Z,22.90
2023-05-21T11:58:16.730Z,22.90
2023-05-21T12:00:43.776Z,22.90
2023-05-21T12:03:14.762Z,22.90
2023-05-21T12:05:48.972Z,22.80
2023-05-21T12:08:25.547Z,22.80
2023-05-21T12:10:59.225Z,22.80
2023-05-21T12:13:26.722Z,22.80
2023-05-21T12:15:54.686Z,22.80
2023-05-21T12:18:21.863Z,22.70
2023-05-21T12:20:49.054Z,22.80
2023-05-21T12:23:25.831Z,22.80
2023-05-21T12:25:53.924Z,22.80
2023-05-21T12:28:24.886Z,22.70
2023-05-21T12:30:53.651Z,22.60
2023-05-21T12:33:22.464Z,22.50
2023-05-21T12:35:51.737Z,22.40
2023-05-21T12:38:18.750Z,22.40
2023-05-21T12:40:46.052Z,22.40
2023-05-21T12:43:13.269Z,22.40
2023-05-21T12:45:40.732Z,22.40
2023-05-21T12:48:08.342Z,22.30
2023-05-21T12:50:38.953Z,22.30
2023-05-21T12:53:10.088Z,22.20
2023-05-21T12:55:37.041Z,22.10
2023-05-21T12:58:10.884Z,22.10
2023-05-21T13:00:38.296Z,22.10
2023-05-21T13:03:06.960Z,22.20
2023-05-21T13:05:34.662Z,22.30
2023-05-21T13:08:01.685Z,22.30
2023-05-21T13:10:28.671Z,22.30
2023-05-21T13:12:55.821Z,22.30
2023-05-21T13:15:22.830Z,22.30
2023-05-21T13:17:50.699Z,22.30
2023-05-21T13:20:21.977Z,22.30
2023-05-21T13:22:50.984Z,22.40
2023-05-21T13:25:21.301Z,22.40
2023-05-21T13:27:49.649Z,22.40
2023-05-21T13:30:16.656Z,22.40
2023-05-21T13:32:43.849Z,22.40
2023-05-21T13:35:12.200Z,22.40
2023-05-21T13:37:40.391Z,22.40
2023-05-21T13:40:11.168Z,22.50
2023-05-21T13:42:38.734Z,22.40
2023-05-21T13:45:11.014Z,22.30
2023-05-21T13:47:40.149Z,22.30
2023-05-21T13:50:08.894Z,22.20
2023-05-21T13:52:36.877Z,22.20
2023-05-21T13:55:04.443Z,22.10
2023-05-21T13:57:32.272Z,22.10
2023-05-21T14:00:00.202Z,22.10
2023-05-21T14:02:27.494Z,22.20
2023-05-21T14:04:54.569Z,22.30
2023-05-21T14:07:22.353Z,22.40
2023-05-21T14:09:50.069Z,22.50
2023-05-21T14:12:17.282Z,22.50
2023-05-21T14:14:44.616Z,22.50
2023-05-21T14:17:11.642Z,22.40
2023-05-21T14:19:38.740Z,22.40
2023-05-21T14:22:05.835Z,22.40
2023-05-21T14:24:32.928Z,22.30
2023-05-21T14:26:59.924Z,22.30
2023-05-21T14:29:26.879Z,22.20
2023-05-21T14:31:53.925Z,22.10
2023-05-21T14:34:21.036Z,21.90
2023-05-21T14:36:47.961Z,21.70
2023-05-21T14:39:14.978Z,21.60
2023-05-21T14:41:42.003Z,21.60
2023-05-21T14:44:08.942Z,21.60
2023-05-21T14:46:36.856Z,21.60
2023-05-21T14:49:04.057Z,21.60
2023-05-21T14:51:31.835Z,21.50
2023-05-21T14:53:59.066Z,21.50
2023-05-21T14:56:27.864Z,21.50
2023-05-21T14:58:55.165Z,21.50
2023-05-21T15:01:22.234Z,21.40
2023-05-21T15:03:49.525Z,21.40
2023-05-21T15:06:16.654Z,21.30
2023-05-21T15:08:43.642Z,21.30
2023-05-21T15:11:10.669Z,21.20
2023-05-21T15:13:38.583Z,21.10
2023-05-21T15:16:06.273Z,21.10
2023-05-21T15:18:33.631Z,21.10
2023-05-21T15:21:00.702Z,21.10
2023-05-21T15:23:27.785Z,20.90
2023-05-21T15:25:54.742Z,20.90
2023-05-21T15:28:23.029Z,20.90
2023-05-21T15:30:50.264Z,20.90
2023-05-21T15:40:43.340Z,20.80
2023-05-21T15:48:06.678Z,20.40
2023-05-21T15:53:04.647Z,20.60
2023-05-21T15:55:34.953Z,20.40
2023-05-21T15:58:03.473Z,20.30
2023-05-21T16:05:26.461Z,20.50
2023-05-21T16:57:03.687Z,19.70
2023-05-21T17:21:56.300Z,19.20
2023-05-21T17:26:50.740Z,19.20
2023-05-21T17:29:17.720Z,19.00
2023-05-21T17:31:44.903Z,19.00
2023-05-21T17:34:12.201Z,19.00
2023-05-21T17:36:39.162Z,18.80
2023-05-21T17:39:06.185Z,18.80
2023-05-21T17:41:33.091Z,18.70
2023-05-21T17:44:00.034Z,18.70
2023-05-21T17:48:54.343Z,18.60
2023-05-21T17:51:21.341Z,18.50
2023-05-21T17:53:48.364Z,18.40
2023-05-21T17:56:15.427Z,18.40
2023-05-21T18:01:09.986Z,18.30
2023-05-21T18:08:32.078Z,18.10
2023-05-21T18:15:57.009Z,17.80
2023-05-21T18:25:46.604Z,18.10
2023-05-21T18:28:13.544Z,17.10
2023-05-21T18:35:35.584Z,17.10
2023-05-21T18:38:04.259Z,16.80
2023-05-21T18:43:00.792Z,16.80
2023-05-21T18:47:55.543Z,16.50
2023-05-21T18:50:22.588Z,16.50
2023-05-21T18:52:53.499Z,16.40
2023-05-21T18:55:20.578Z,16.50
2023-05-21T18:57:50.080Z,16.50
2023-05-21T19:00:17.576Z,16.50
2023-05-21T19:02:45.115Z,16.50
2023-05-21T19:05:12.531Z,16.50
2023-05-21T19:07:41.263Z,16.40
2023-05-21T19:10:09.317Z,16.30
2023-05-21T19:12:36.440Z,16.20
2023-05-21T19:15:04.268Z,16.10
2023-05-21T19:19:58.631Z,16.00
2023-05-21T19:22:27.475Z,15.90
2023-05-21T19:24:54.949Z,15.90
2023-05-21T19:27:22.102Z,15.80
2023-05-21T19:29:49.282Z,15.60
2023-05-21T19:32:16.652Z,15.70
2023-05-21T19:34:43.638Z,15.60
2023-05-21T19:37:10.693Z,15.70
2023-05-21T19:39:38.935Z,15.70
2023-05-21T19:42:07.555Z,15.70
2023-05-21T19:44:34.844Z,15.60
2023-05-21T19:47:02.523Z,15.60
2023-05-21T19:49:29.492Z,15.60
2023-05-21T19:51:56.665Z,15.50
2023-05-21T19:54:24.334Z,15.50
2023-05-21T19:56:51.692Z,15.50
2023-05-21T19:59:18.850Z,15.50
2023-05-21T20:01:46.154Z,15.40
2023-05-21T20:04:14.127Z,15.40
2023-05-21T20:06:41.274Z,15.30
2023-05-21T20:09:08.941Z,15.30
2023-05-21T20:11:36.243Z,15.30
2023-05-21T20:14:03.315Z,15.30
2023-05-21T20:16:30.832Z,15.30
2023-05-21T20:18:58.425Z,15.30
2023-05-21T20:21:25.616Z,15.20
2023-05-21T20:23:53.728Z,15.20
2023-05-21T20:26:21.869Z,15.20
2023-05-21T20:28:48.891Z,15.10
2023-05-21T20:31:15.874Z,15.10
2023-05-21T20:33:43.203Z,15.10
2023-05-21T20:36:10.204Z,15.10
2023-05-21T20:38:38.267Z,15.10
2023-05-21T20:41:05.391Z,15.00
2023-05-21T20:43:33.027Z,15.00
2023-05-21T20:46:00.138Z,14.90
2023-05-21T20:48:31.962Z,14.90
2023-05-21T20:51:00.140Z,14.90
2023-05-21T20:53:27.402Z,14.90
2023-05-21T20:55:54.822Z,14.90
2023-05-21T20:58:25.685Z,14.80
2023-05-21T21:03:22.488Z,14.90
2023-05-21T21:05:49.470Z,14.90
2023-05-21T21:08:16.431Z,14.90
2023-05-21T21:10:46.964Z,14.80
2023-05-21T21:13:14.486Z,14.80
2023-05-21T21:15:42.719Z,14.80
2023-05-21T21:18:12.237Z,14.80
2023-05-21T21:20:41.271Z,14.70
2023-05-21T21:23:08.588Z,14.70
2023-05-21T21:25:35.804Z,14.70
2023-05-21T21:28:02.846Z,14.70
2023-05-21T21:30:29.898Z,14.70
2023-05-21T21:32:57.065Z,14.70
2023-05-21T21:35:24.099Z,14.70
2023-05-21T21:37:51.112Z,14.70
2023-05-21T21:40:18.145Z,14.60
2023-05-21T21:42:45.185Z,14.60
2023-05-21T21:45:12.209Z,14.60
2023-05-21T21:47:39.202Z,14.60
2023-05-21T21:50:06.955Z,14.60
2023-05-21T21:52:34.013Z,14.60
2023-05-21T21:55:01.136Z,14.60
2023-05-21T21:57:30.614Z,14.60
2023-05-21T21:59:57.556Z,14.60
2023-05-21T22:02:24.498Z,14.60
2023-05-21T22:04:51.499Z,14.50
2023-05-21T22:09:46.108Z,14.50
2023-05-21T22:12:13.618Z,14.60
2023-05-21T22:14:40.634Z,14.50
2023-05-21T22:17:08.596Z,14.60
2023-05-21T22:19:36.106Z,14.60
2023-05-21T22:22:04.582Z,14.50
2023-05-21T22:24:33.180Z,14.60
2023-05-21T22:27:01.312Z,14.60
2023-05-21T22:29:28.240Z,14.50
2023-05-21T22:31:55.336Z,14.50
2023-05-21T22:34:25.259Z,14.50
2023-05-21T22:36:52.351Z,14.50
2023-05-21T22:39:19.307Z,14.40
2023-05-21T22:41:46.304Z,14.40
2023-05-21T22:44:13.268Z,14.30
2023-05-21T22:46:42.173Z,14.30
2023-05-21T22:49:10.328Z,14.20
2023-05-21T22:51:37.640Z,14.20
2023-05-21T22:54:04.977Z,14.10
2023-05-21T22:56:31.918Z,14.10
2023-05-21T22:58:59.673Z,14.00
2023-05-21T23:01:26.866Z,13.80
2023-05-21T23:03:53.892Z,13.70
2023-05-21T23:06:20.957Z,13.60
2023-05-21T23:08:47.960Z,13.50
2023-05-21T23:11:15.025Z,13.50
2023-05-21T23:13:41.952Z,13.50
2023-05-21T23:16:08.997Z,13.40
2023-05-21T23:18:36.068Z,13.40
2023-05-21T23:21:03.225Z,13.40
2023-05-21T23:23:30.572Z,13.40
2023-05-21T23:25:59.115Z,13.30
2023-05-21T23:28:26.581Z,13.30
2023-05-21T23:30:53.729Z,13.30
2023-05-21T23:33:20.725Z,13.20
2023-05-21T23:35:47.661Z,13.20
2023-05-21T23:38:14.722Z,13.20
2023-05-21T23:40:42.314Z,13.20
2023-05-21T23:43:09.334Z,13.20
2023-05-21T23:45:36.481Z,13.20
2023-05-21T23:48:03.699Z,13.10
2023-05-21T23:50:30.908Z,13.20
2023-05-21T23:52:58.415Z,13.20
2023-05-21T23:55:25.841Z,13.10
2023-05-21T23:57:52.949Z,13.20
